Time;durP1;ratioP1;P1;durP2;ratioP2;P2;SDS_P1;SDS_P2;PMS_P1;PMS_P2;Temp;Humidity;BMP_temperature;BMP_pressure;BME280_temperature;BME280_humidity;BME280_pressure;Samples;Min_cycle;Max_cycle;Signal;HPM_P1;HPM_P2
2023/12/14 00:00:45;;;;;;;8.97;8.07;;;;;;;;;;5041460;28;20219;-67
2023/12/14 00:03:12;;;;;;;9.57;8.57;;;;;;;;;;5037145;28;20210;-66
2023/12/14 00:05:39;;;;;;;9.50;8.50;;;;;;;;;;5046296;28;20211;-67
2023/12/14 00:08:06;;;;;;;12.80;10.20;;;;;;;;;;5043656;28;20276;-67
2023/12/14 00:10:35;;;;;;;10.37;8.73;;;;;;;;;;5040631;28;20215;-67
2023/12/14 00:13:04;;;;;;;10.57;8.97;;;;;;;;;;5041982;28;20218;-67
2023/12/14 00:15:31;;;;;;;10.57;8.93;;;;;;;;;;5043866;28;20238;-66
2023/12/14 00:17:58;;;;;;;10.00;8.83;;;;;;;;;;5040915;28;20229;-66
2023/12/14 00:20:25;;;;;;;11.53;9.47;;;;;;;;;;5043048;28;20211;-66
2023/12/14 00:22:52;;;;;;;10.37;9.27;;;;;;;;;;5044231;28;20199;-66
2023/12/14 00:25:18;;;;;;;11.90;9.63;;;;;;;;;;5042045;28;20206;-66
2023/12/14 00:27:47;;;;;;;13.30;9.70;;;;;;;;;;5044097;28;20228;-66
2023/12/14 00:30:14;;;;;;;17.20;12.40;;;;;;;;;;5042202;28;20211;-67
2023/12/14 00:32:41;;;;;;;12.80;9.93;;;;;;;;;;5039876;28;20208;-66
2023/12/14 00:35:09;;;;;;;14.63;10.03;;;;;;;;;;5042847;28;20200;-66
2023/12/14 00:37:36;;;;;;;12.67;9.97;;;;;;;;;;5044779;28;20199;-67
2023/12/14 00:40:03;;;;;;;11.00;9.90;;;;;;;;;;5042007;28;20504;-67
2023/12/14 00:42:30;;;;;;;12.77;9.93;;;;;;;;;;5039307;28;20204;-66
2023/12/14 00:44:59;;;;;;;10.70;9.17;;;;;;;;;;5039977;28;20215;-66
2023/12/14 00:47:26;;;;;;;11.80;9.17;;;;;;;;;;5040386;28;20235;-66
2023/12/14 00:49:53;;;;;;;12.87;9.90;;;;;;;;;;5043890;28;20207;-66
2023/12/14 00:52:20;;;;;;;12.53;9.97;;;;;;;;;;5040323;28;20215;-66
2023/12/14 00:54:47;;;;;;;12.23;9.27;;;;;;;;;;5039362;28;20204;-67
2023/12/14 00:57:14;;;;;;;11.50;8.90;;;;;;;;;;5044681;28;20204;-66
2023/12/14 00:59:41;;;;;;;11.47;9.20;;;;;;;;;;5041158;28;20204;-67
2023/12/14 01:02:10;;;;;;;12.53;9.70;;;;;;;;;;5041084;28;20204;-67
2023/12/14 01:04:37;;;;;;;12.27;8.87;;;;;;;;;;5043331;28;20207;-67
2023/12/14 01:07:04;;;;;;;15.90;10.53;;;;;;;;;;5037426;28;20226;-67
2023/12/14 01:09:31;;;;;;;11.07;8.87;;;;;;;;;;5039137;28;20204;-67
2023/12/14 01:11:58;;;;;;;12.27;9.43;;;;;;;;;;5044660;28;20203;-66
2023/12/14 01:14:25;;;;;;;12.83;9.73;;;;;;;;;;5043464;28;20239;-66
2023/12/14 01:16:53;;;;;;;14.57;10.07;;;;;;;;;;5043235;28;20191;-67
2023/12/14 01:19:21;;;;;;;17.80;11.10;;;;;;;;;;5043920;28;20200;-67
2023/12/14 01:21:48;;;;;;;11.43;9.93;;;;;;;;;;5045335;28;20211;-66
2023/12/14 01:24:15;;;;;;;13.37;10.33;;;;;;;;;;5041606;28;20221;-66
2023/12/14 01:26:42;;;;;;;13.53;10.00;;;;;;;;;;5044524;28;20242;-66
2023/12/14 01:29:11;;;;;;;14.63;10.60;;;;;;;;;;5046419;28;20202;-67
2023/12/14 01:31:38;;;;;;;15.53;10.43;;;;;;;;;;5038415;28;20218;-66
2023/12/14 01:34:05;;;;;;;15.27;9.67;;;;;;;;;;5037500;28;20208;-67
2023/12/14 01:36:34;;;;;;;14.23;10.43;;;;;;;;;;5039069;28;20200;-67
2023/12/14 01:39:01;;;;;;;13.30;10.13;;;;;;;;;;5038726;28;20393;-67
2023/12/14 01:41:28;;;;;;;15.23;10.50;;;;;;;;;;5042668;28;20212;-67
2023/12/14 01:43:55;;;;;;;13.13;10.10;;;;;;;;;;5033943;28;20199;-67
2023/12/14 01:46:22;;;;;;;18.67;10.67;;;;;;;;;;5040806;28;20303;-67
2023/12/14 01:48:49;;;;;;;15.67;10.33;;;;;;;;;;5040515;28;20238;-67
2023/12/14 01:51:17;;;;;;;12.60;10.30;;;;;;;;;;5039030;28;20208;-66
2023/12/14 01:53:45;;;;;;;14.13;11.17;;;;;;;;;;5040236;28;20209;-66
2023/12/14 01:56:12;;;;;;;13.57;10.47;;;;;;;;;;5040054;28;20206;-66
2023/12/14 01:58:39;;;;;;;13.83;10.30;;;;;;;;;;5043877;28;20200;-67
2023/12/14 02:01:11;;;;;;;15.23;10.33;;;;;;;;;;5041371;28;20209;-66
2023/12/14 02:03:45;;;;;;;12.57;10.47;;;;;;;;;;5044062;28;20200;-66
2023/12/14 02:06:12;;;;;;;13.43;10.80;;;;;;;;;;5041472;28;20287;-67
2023/12/14 02:08:39;;;;;;;14.90;10.50;;;;;;;;;;5044136;28;20224;-66
2023/12/14 02:11:07;;;;;;;13.57;10.73;;;;;;;;;;5046396;28;20387;-66
2023/12/14 02:13:35;;;;;;;12.83;10.20;;;;;;;;;;5046113;28;20210;-66
2023/12/14 02:16:02;;;;;;;13.07;10.57;;;;;;;;;;5039059;28;20234;-67
2023/12/14 02:18:29;;;;;;;15.10;10.97;;;;;;;;;;5045082;28;20222;-68
2023/12/14 02:20:56;;;;;;;13.93;11.13;;;;;;;;;;5048892;28;20203;-66
2023/12/14 02:23:24;;;;;;;13.73;10.77;;;;;;;;;;5044985;28;20203;-66
2023/12/14 02:25:51;;;;;;;19.90;12.40;;;;;;;;;;5045737;28;20226;-67
2023/12/14 02:28:18;;;;;;;19.27;12.53;;;;;;;;;;5040256;28;20220;-67
2023/12/14 02:30:46;;;;;;;17.90;12.47;;;;;;;;;;5041857;28;20196;-67
2023/12/14 02:33:13;;;;;;;15.63;11.23;;;;;;;;;;5045061;28;20207;-67
2023/12/14 02:35:40;;;;;;;19.30;12.30;;;;;;;;;;5043225;28;20208;-67
2023/12/14 02:38:07;;;;;;;17.87;12.17;;;;;;;;;;5047669;28;20196;-67
2023/12/14 02:40:35;;;;;;;18.10;12.93;;;;;;;;;;5048104;28;20214;-68
2023/12/14 02:43:03;;;;;;;20.10;11.80;;;;;;;;;;5041587;28;20204;-68
2023/12/14 02:45:30;;;;;;;19.83;12.70;;;;;;;;;;5044018;28;20210;-67
2023/12/14 02:47:57;;;;;;;16.80;11.50;;;;;;;;;;5045478;28;20227;-67
2023/12/14 02:50:24;;;;;;;17.33;11.13;;;;;;;;;;5048686;28;20203;-67
2023/12/14 02:52:51;;;;;;;16.17;11.60;;;;;;;;;;5041272;28;20271;-68
2023/12/14 02:55:18;;;;;;;15.50;11.23;;;;;;;;;;5042564;28;20208;-67
2023/12/14 02:57:47;;;;;;;14.27;10.60;;;;;;;;;;5047358;28;20196;-67
2023/12/14 03:00:14;;;;;;;13.60;10.27;;;;;;;;;;5044402;28;20226;-67
2023/12/14 03:02:41;;;;;;;17.47;11.70;;;;;;;;;;5045424;28;20208;-61
2023/12/14 03:05:09;;;;;;;12.30;9.67;;;;;;;;;;5043997;28;20214;-61
2023/12/14 03:07:36;;;;;;;15.87;10.23;;;;;;;;;;5043718;28;20216;-62
2023/12/14 03:10:04;;;;;;;12.33;9.47;;;;;;;;;;5044463;28;20204;-62
2023/12/14 03:12:31;;;;;;;14.20;9.57;;;;;;;;;;5047887;28;20206;-62
2023/12/14 03:15:00;;;;;;;12.20;10.17;;;;;;;;;;5044152;28;20239;-62
2023/12/14 03:17:27;;;;;;;15.30;10.40;;;;;;;;;;5040171;28;20219;-62
2023/12/14 03:19:54;;;;;;;15.80;10.23;;;;;;;;;;5045294;28;20207;-62
2023/12/14 03:22:21;;;;;;;14.30;10.17;;;;;;;;;;5040698;28;20207;-62
2023/12/14 03:24:48;;;;;;;14.00;10.00;;;;;;;;;;5043117;28;20203;-62
2023/12/14 03:27:15;;;;;;;12.90;10.23;;;;;;;;;;5045987;28;20212;-62
2023/12/14 03:29:43;;;;;;;16.47;9.50;;;;;;;;;;5049228;28;20207;-62
2023/12/14 03:32:11;;;;;;;12.33;8.97;;;;;;;;;;5035876;28;20298;-62
2023/12/14 03:34:38;;;;;;;12.97;9.23;;;;;;;;;;5041749;28;20204;-62
2023/12/14 03:37:05;;;;;;;13.30;9.60;;;;;;;;;;5047130;28;20191;-62
2023/12/14 03:39:33;;;;;;;11.93;9.67;;;;;;;;;;5046469;28;20199;-62
2023/12/14 03:42:00;;;;;;;14.57;10.13;;;;;;;;;;5041678;28;20204;-62
2023/12/14 03:44:27;;;;;;;13.73;10.27;;;;;;;;;;5045709;28;20207;-62
2023/12/14 03:46:55;;;;;;;11.90;9.23;;;;;;;;;;5042025;28;20207;-61
2023/12/14 03:49:24;;;;;;;11.47;8.87;;;;;;;;;;5041817;28;20230;-62
2023/12/14 03:51:51;;;;;;;12.20;8.70;;;;;;;;;;5039256;28;20206;-68
2023/12/14 03:54:18;;;;;;;12.50;9.00;;;;;;;;;;5042344;28;20223;-67
2023/12/14 03:56:45;;;;;;;12.57;9.23;;;;;;;;;;5042961;28;20199;-67
2023/12/14 03:59:12;;;;;;;11.53;9.13;;;;;;;;;;5041238;28;20204;-66
2023/12/14 04:01:41;;;;;;;10.70;8.13;;;;;;;;;;5042419;28;20207;-66
2023/12/14 04:04:08;;;;;;;9.47;7.73;;;;;;;;;;5039898;28;20229;-67
2023/12/14 04:06:36;;;;;;;8.37;7.53;;;;;;;;;;5042484;28;20215;-67
2023/12/14 04:09:03;;;;;;;9.43;7.17;;;;;;;;;;5045318;28;20215;-66
2023/12/14 04:11:31;;;;;;;7.90;6.70;;;;;;;;;;5042041;28;20238;-67
2023/12/14 04:13:58;;;;;;;11.10;7.87;;;;;;;;;;5043116;28;20214;-66
2023/12/14 04:16:25;;;;;;;7.67;6.73;;;;;;;;;;5043471;28;20212;-67
2023/12/14 04:18:52;;;;;;;7.87;6.40;;;;;;;;;;5044801;28;20206;-67
2023/12/14 04:21:19;;;;;;;7.17;6.27;;;;;;;;;;5044101;28;20206;-67
2023/12/14 04:23:47;;;;;;;7.70;6.90;;;;;;;;;;5044122;28;20221;-67
2023/12/14 04:26:15;;;;;;;7.83;6.67;;;;;;;;;;5042343;28;20219;-66
2023/12/14 04:28:43;;;;;;;6.80;6.10;;;;;;;;;;5040024;28;20218;-67
2023/12/14 04:31:11;;;;;;;7.17;6.00;;;;;;;;;;5044444;28;20200;-66
2023/12/14 04:33:38;;;;;;;8.57;7.03;;;;;;;;;;5043846;28;20214;-67
2023/12/14 04:36:06;;;;;;;6.23;5.50;;;;;;;;;;5040518;28;20233;-66
2023/12/14 04:38:33;;;;;;;6.23;5.63;;;;;;;;;;5043085;28;20211;-67
2023/12/14 04:41:01;;;;;;;6.80;5.47;;;;;;;;;;5041308;28;20199;-66
2023/12/14 04:43:30;;;;;;;8.53;6.27;;;;;;;;;;5044647;28;20215;-66
2023/12/14 04:45:57;;;;;;;9.83;5.17;;;;;;;;;;5042848;28;20204;-67
2023/12/14 04:48:24;;;;;;;5.13;4.73;;;;;;;;;;5040144;28;20243;-66
2023/12/14 04:50:51;;;;;;;5.40;4.90;;;;;;;;;;5037201;28;20206;-67
2023/12/14 04:53:18;;;;;;;4.93;4.50;;;;;;;;;;5046416;28;20399;-67
2023/12/14 04:55:45;;;;;;;6.57;4.97;;;;;;;;;;5040316;28;20197;-67
2023/12/14 04:58:14;;;;;;;5.00;4.50;;;;;;;;;;5045565;28;20192;-66
2023/12/14 05:00:41;;;;;;;5.80;4.50;;;;;;;;;;5041307;28;20207;-67
2023/12/14 05:03:08;;;;;;;5.00;4.30;;;;;;;;;;5044162;28;20219;-66
2023/12/14 05:05:35;;;;;;;4.70;4.17;;;;;;;;;;5044702;28;20210;-67
2023/12/14 05:08:02;;;;;;;4.63;4.23;;;;;;;;;;5041563;28;20210;-66
2023/12/14 05:10:29;;;;;;;4.70;4.20;;;;;;;;;;5042049;28;20209;-67
2023/12/14 05:12:56;;;;;;;5.17;4.60;;;;;;;;;;5042807;28;20204;-67
2023/12/14 05:15:25;;;;;;;5.43;4.73;;;;;;;;;;5038323;28;20232;-67
2023/12/14 05:17:52;;;;;;;5.27;4.77;;;;;;;;;;5042660;28;20237;-67
2023/12/14 05:20:20;;;;;;;4.97;4.50;;;;;;;;;;5042882;28;20219;-66
2023/12/14 05:22:47;;;;;;;8.03;5.30;;;;;;;;;;5041969;28;20200;-66
2023/12/14 05:25:14;;;;;;;5.10;4.70;;;;;;;;;;5039220;28;20200;-66
2023/12/14 05:27:42;;;;;;;5.17;4.40;;;;;;;;;;5042311;28;20511;-67
2023/12/14 05:30:09;;;;;;;5.30;4.53;;;;;;;;;;5044294;28;20246;-68
2023/12/14 05:32:38;;;;;;;6.10;5.00;;;;;;;;;;5045967;28;20203;-67
2023/12/14 05:35:05;;;;;;;5.83;4.57;;;;;;;;;;5048431;28;20214;-66
2023/12/14 05:37:32;;;;;;;5.47;4.97;;;;;;;;;;5043325;28;20214;-67
2023/12/14 05:40:00;;;;;;;5.77;5.03;;;;;;;;;;5048432;28;20208;-67
2023/12/14 05:42:27;;;;;;;5.30;4.80;;;;;;;;;;5048150;28;20221;-67
2023/12/14 05:44:54;;;;;;;4.83;4.30;;;;;;;;;;5047384;28;20209;-66
2023/12/14 05:47:21;;;;;;;6.67;5.13;;;;;;;;;;5048051;28;20203;-67
2023/12/14 05:49:49;;;;;;;6.47;4.80;;;;;;;;;;5049487;28;20229;-67
2023/12/14 05:52:16;;;;;;;5.07;4.50;;;;;;;;;;5046977;28;20200;-67
2023/12/14 05:54:43;;;;;;;6.90;4.53;;;;;;;;;;5046086;28;20205;-67
2023/12/14 05:57:12;;;;;;;4.90;4.40;;;;;;;;;;5046256;28;20210;-66
2023/12/14 05:59:40;;;;;;;6.17;5.57;;;;;;;;;;5043234;28;20209;-66
2023/12/14 06:02:08;;;;;;;6.23;5.60;;;;;;;;;;5042880;28;20196;-67
2023/12/14 06:04:35;;;;;;;5.67;4.70;;;;;;;;;;5047619;28;20214;-67
2023/12/14 06:07:04;;;;;;;4.60;4.20;;;;;;;;;;5042698;28;20281;-67
2023/12/14 06:09:33;;;;;;;6.67;4.87;;;;;;;;;;5049863;28;20228;-67
2023/12/14 06:12:01;;;;;;;5.90;4.70;;;;;;;;;;5041116;28;20205;-67
2023/12/14 06:14:29;;;;;;;5.37;4.90;;;;;;;;;;5044277;28;20239;-68
2023/12/14 06:16:56;;;;;;;5.90;4.67;;;;;;;;;;5041874;28;20204;-66
2023/12/14 06:19:23;;;;;;;5.67;5.10;;;;;;;;;;5045316;28;20200;-67
2023/12/14 06:21:50;;;;;;;5.20;4.67;;;;;;;;;;5043158;28;20199;-67
2023/12/14 06:24:20;;;;;;;6.50;4.80;;;;;;;;;;5046103;28;20211;-67
2023/12/14 06:26:48;;;;;;;5.97;4.80;;;;;;;;;;5045121;28;20275;-67
2023/12/14 06:29:15;;;;;;;4.87;4.37;;;;;;;;;;5047322;28;20219;-68
2023/12/14 06:31:42;;;;;;;5.40;4.53;;;;;;;;;;5042502;28;20559;-64
2023/12/14 06:34:09;;;;;;;4.93;4.40;;;;;;;;;;5045399;28;20200;-62
2023/12/14 06:36:36;;;;;;;5.43;4.33;;;;;;;;;;5047362;28;20221;-61
2023/12/14 06:39:04;;;;;;;4.90;4.50;;;;;;;;;;5043152;28;20202;-62
2023/12/14 06:41:33;;;;;;;4.67;4.27;;;;;;;;;;5043582;28;20200;-62
2023/12/14 06:44:00;;;;;;;5.67;4.80;;;;;;;;;;5046569;28;20196;-62
2023/12/14 06:46:27;;;;;;;4.73;4.23;;;;;;;;;;5044165;28;20330;-61
2023/12/14 06:48:55;;;;;;;5.20;4.33;;;;;;;;;;5042670;28;20227;-61
2023/12/14 06:51:22;;;;;;;5.53;4.60;;;;;;;;;;5039801;28;20222;-62
2023/12/14 06:53:49;;;;;;;5.00;4.50;;;;;;;;;;5047083;28;20219;-62
2023/12/14 06:56:16;;;;;;;5.27;4.77;;;;;;;;;;5038942;28;20200;-63
2023/12/14 06:58:49;;;;;;;7.77;5.60;;;;;;;;;;5045096;28;20203;-62
2023/12/14 07:01:16;;;;;;;6.00;5.07;;;;;;;;;;5045522;28;20207;-61
2023/12/14 07:03:44;;;;;;;5.97;4.60;;;;;;;;;;5039666;28;20199;-62
2023/12/14 07:06:13;;;;;;;6.20;5.23;;;;;;;;;;5044608;28;20199;-62
2023/12/14 07:08:40;;;;;;;6.47;4.50;;;;;;;;;;5045958;28;20243;-61
2023/12/14 07:11:08;;;;;;;4.97;4.47;;;;;;;;;;5040271;28;20200;-64
2023/12/14 07:13:37;;;;;;;4.70;4.27;;;;;;;;;;5040645;28;20227;-64
2023/12/14 07:16:07;;;;;;;5.07;4.43;;;;;;;;;;5037902;28;20326;-62
2023/12/14 07:18:34;;;;;;;5.27;4.37;;;;;;;;;;5035058;28;20200;-62
2023/12/14 07:21:01;;;;;;;5.20;4.43;;;;;;;;;;5040342;28;20459;-61
2023/12/14 07:23:28;;;;;;;5.57;4.50;;;;;;;;;;5048297;28;20222;-62
2023/12/14 07:25:57;;;;;;;5.00;4.00;;;;;;;;;;5041332;28;20234;-62
2023/12/14 07:28:25;;;;;;;5.53;4.33;;;;;;;;;;5039302;28;20247;-62
2023/12/14 07:30:52;;;;;;;5.17;4.63;;;;;;;;;;5040099;28;20255;-62
2023/12/14 07:33:21;;;;;;;5.10;4.60;;;;;;;;;;5042698;28;20305;-63
2023/12/14 07:35:48;;;;;;;4.90;4.40;;;;;;;;;;5041050;28;20199;-62
2023/12/14 07:38:15;;;;;;;5.67;5.00;;;;;;;;;;5045295;28;20210;-63
2023/12/14 07:40:42;;;;;;;6.83;5.10;;;;;;;;;;5046929;28;20211;-62
2023/12/14 07:43:09;;;;;;;6.77;5.03;;;;;;;;;;5042175;28;20214;-62
2023/12/14 07:45:36;;;;;;;6.93;5.50;;;;;;;;;;5044838;28;20214;-62
2023/12/14 07:48:04;;;;;;;5.73;5.17;;;;;;;;;;5041399;28;20206;-62
2023/12/14 07:50:33;;;;;;;7.97;5.20;;;;;;;;;;5045832;28;20227;-61
2023/12/14 07:52:59;;;;;;;7.37;5.57;;;;;;;;;;5046591;28;20209;-62
2023/12/14 07:55:26;;;;;;;8.00;5.77;;;;;;;;;;5040091;28;20206;-63
2023/12/14 07:57:53;;;;;;;7.40;5.73;;;;;;;;;;5043852;28;20214;-62
2023/12/14 08:00:21;;;;;;;8.17;6.13;;;;;;;;;;5040169;28;20207;-62
2023/12/14 08:02:48;;;;;;;6.70;5.30;;;;;;;;;;5038169;28;20238;-63
2023/12/14 08:05:15;;;;;;;6.43;5.10;;;;;;;;;;5042016;28;20313;-62
2023/12/14 08:07:44;;;;;;;6.07;5.47;;;;;;;;;;5036537;28;20231;-65
2023/12/14 08:10:11;;;;;;;8.20;5.67;;;;;;;;;;5039971;28;20282;-62
2023/12/14 08:12:38;;;;;;;7.23;5.33;;;;;;;;;;5039950;28;20195;-64
2023/12/14 08:15:07;;;;;;;7.03;4.93;;;;;;;;;;5041033;28;20223;-65
2023/12/14 08:17:35;;;;;;;8.13;5.53;;;;;;;;;;5041217;28;20268;-62
2023/12/14 08:20:04;;;;;;;7.43;5.50;;;;;;;;;;5041519;28;20287;-62
2023/12/14 08:22:31;;;;;;;6.67;5.70;;;;;;;;;;5043228;28;20207;-62
2023/12/14 08:25:00;;;;;;;7.10;5.50;;;;;;;;;;5042103;28;20204;-62
2023/12/14 08:27:27;;;;;;;7.33;5.60;;;;;;;;;;5040851;28;20208;-63
2023/12/14 08:29:54;;;;;;;5.33;4.73;;;;;;;;;;5040425;28;20217;-62
2023/12/14 08:32:21;;;;;;;6.90;5.57;;;;;;;;;;5043829;28;20212;-61
2023/12/14 08:34:48;;;;;;;7.97;5.70;;;;;;;;;;5046087;28;20227;-62
2023/12/14 08:37:16;;;;;;;7.77;6.10;;;;;;;;;;5044592;28;20199;-62
2023/12/14 08:39:43;;;;;;;8.93;5.50;;;;;;;;;;5047412;28;20207;-62
2023/12/14 08:42:11;;;;;;;7.77;6.07;;;;;;;;;;5036301;28;20272;-62
2023/12/14 08:44:39;;;;;;;6.20;5.27;;;;;;;;;;5045253;28;20199;-63
2023/12/14 08:47:08;;;;;;;7.37;5.70;;;;;;;;;;5040536;28;20444;-62
2023/12/14 08:49:36;;;;;;;7.67;6.00;;;;;;;;;;5042261;28;20219;-62
2023/12/14 08:52:04;;;;;;;8.40;6.20;;;;;;;;;;5041985;28;20267;-63
2023/12/14 08:54:31;;;;;;;8.63;6.30;;;;;;;;;;5043415;28;20211;-63
2023/12/14 08:56:58;;;;;;;7.50;5.60;;;;;;;;;;5040969;28;20209;-62
2023/12/14 08:59:26;;;;;;;7.27;6.00;;;;;;;;;;5039049;28;20222;-63
2023/12/14 09:01:53;;;;;;;8.03;6.40;;;;;;;;;;5043385;28;20201;-62
2023/12/14 09:04:21;;;;;;;7.73;5.60;;;;;;;;;;5043614;28;20452;-62
2023/12/14 09:06:48;;;;;;;7.50;6.40;;;;;;;;;;5044170;28;20196;-63
2023/12/14 09:09:15;;;;;;;9.07;5.60;;;;;;;;;;5045594;28;20214;-63
2023/12/14 09:11:42;;;;;;;7.23;5.97;;;;;;;;;;5048613;28;21648;-62
2023/12/14 09:14:09;;;;;;;7.60;6.00;;;;;;;;;;5045780;28;20231;-62
2023/12/14 09:16:38;;;;;;;7.70;6.13;;;;;;;;;;5044216;28;20236;-62
2023/12/14 09:19:05;;;;;;;8.50;6.37;;;;;;;;;;5044508;28;20202;-62
2023/12/14 09:21:32;;;;;;;6.93;6.23;;;;;;;;;;5045950;28;20294;-62
2023/12/14 09:23:59;;;;;;;7.90;6.50;;;;;;;;;;5048300;28;20293;-62
2023/12/14 09:26:26;;;;;;;7.07;5.40;;;;;;;;;;5045852;28;20196;-61
2023/12/14 09:28:53;;;;;;;7.67;5.90;;;;;;;;;;5051326;28;20210;-62
2023/12/14 09:31:20;;;;;;;6.83;5.60;;;;;;;;;;5045529;28;20229;-63
2023/12/14 09:33:49;;;;;;;8.43;6.00;;;;;;;;;;5045004;28;20202;-62
2023/12/14 09:36:16;;;;;;;7.70;5.90;;;;;;;;;;5047996;28;20208;-62
2023/12/14 09:38:43;;;;;;;7.73;6.10;;;;;;;;;;5042893;28;20218;-62
2023/12/14 09:41:11;;;;;;;9.67;5.57;;;;;;;;;;5046020;28;20196;-62
2023/12/14 09:43:38;;;;;;;6.03;5.43;;;;;;;;;;5043120;28;20214;-63
2023/12/14 09:46:06;;;;;;;6.73;5.17;;;;;;;;;;5044047;28;20195;-62
2023/12/14 09:48:34;;;;;;;6.40;5.80;;;;;;;;;;5040935;28;20463;-61
2023/12/14 09:51:03;;;;;;;5.70;5.10;;;;;;;;;;5045540;28;20226;-62
2023/12/14 09:53:30;;;;;;;7.40;4.90;;;;;;;;;;5044948;28;20214;-62
2023/12/14 09:55:57;;;;;;;5.80;4.97;;;;;;;;;;5045744;28;20200;-62
2023/12/14 09:58:24;;;;;;;6.13;4.90;;;;;;;;;;5043871;28;20200;-62
2023/12/14 10:00:51;;;;;;;5.67;5.00;;;;;;;;;;5046883;28;20196;-62
2023/12/14 10:03:26;;;;;;;5.77;5.17;;;;;;;;;;5041628;28;20195;-62
2023/12/14 10:05:53;;;;;;;5.70;5.10;;;;;;;;;;5043645;28;20245;-62
2023/12/14 10:08:22;;;;;;;5.30;4.80;;;;;;;;;;5043661;28;20214;-62
2023/12/14 10:10:51;;;;;;;5.93;5.30;;;;;;;;;;5045913;28;20228;-61
2023/12/14 10:13:18;;;;;;;5.37;4.87;;;;;;;;;;5041950;28;20203;-62
2023/12/14 10:15:46;;;;;;;5.33;4.70;;;;;;;;;;5042299;28;20227;-62
2023/12/14 10:18:13;;;;;;;6.03;4.90;;;;;;;;;;5041214;28;20216;-62
2023/12/14 10:20:41;;;;;;;5.80;5.20;;;;;;;;;;5043988;28;20192;-62
2023/12/14 10:23:08;;;;;;;6.63;5.93;;;;;;;;;;5045421;28;20204;-61
2023/12/14 10:25:38;;;;;;;6.13;5.53;;;;;;;;;;5043104;28;20206;-62
2023/12/14 10:28:05;;;;;;;6.07;5.30;;;;;;;;;;5040039;28;20204;-63
2023/12/14 10:30:32;;;;;;;5.70;5.10;;;;;;;;;;5045499;28;20227;-61
2023/12/14 10:33:00;;;;;;;5.97;5.37;;;;;;;;;;5040196;28;20207;-62
2023/12/14 10:35:27;;;;;;;5.57;5.07;;;;;;;;;;5043883;28;20207;-63
2023/12/14 10:37:57;;;;;;;6.90;5.80;;;;;;;;;;5038926;28;20199;-62
2023/12/14 10:40:24;;;;;;;5.50;5.00;;;;;;;;;;5046367;28;20208;-62
2023/12/14 10:42:57;;;;;;;5.07;4.53;;;;;;;;;;5041144;28;20211;-61
2023/12/14 10:45:25;;;;;;;5.37;4.87;;;;;;;;;;5044262;28;20210;-62
2023/12/14 10:47:52;;;;;;;7.50;4.87;;;;;;;;;;5046289;28;20215;-62
2023/12/14 10:50:20;;;;;;;5.47;4.97;;;;;;;;;;5044097;28;20225;-62
2023/12/14 10:52:48;;;;;;;5.47;4.53;;;;;;;;;;5045468;28;20242;-62
2023/12/14 10:55:21;;;;;;;6.07;5.47;;;;;;;;;;5046594;28;20207;-61
2023/12/14 10:57:49;;;;;;;5.77;5.13;;;;;;;;;;5043525;28;20266;-62
2023/12/14 11:00:19;;;;;;;6.53;5.77;;;;;;;;;;5042708;28;20295;-63
2023/12/14 11:02:49;;;;;;;5.43;4.93;;;;;;;;;;5045346;28;20215;-62
2023/12/14 11:05:22;;;;;;;5.73;5.07;;;;;;;;;;5042626;28;20257;-63
2023/12/14 11:07:52;;;;;;;4.33;3.90;;;;;;;;;;5044358;28;20200;-62
2023/12/14 11:10:23;;;;;;;4.20;3.80;;;;;;;;;;5046260;28;20227;-63
2023/12/14 11:13:01;;;;;;;3.80;3.50;;;;;;;;;;5042021;28;20253;-66
2023/12/14 11:15:36;;;;;;;3.07;2.77;;;;;;;;;;5042087;28;20275;-67
2023/12/14 11:18:22;;;;;;;3.47;3.00;;;;;;;;;;5043048;28;20207;-67
2023/12/14 11:20:50;;;;;;;3.30;3.00;;;;;;;;;;5041937;28;20200;-67
2023/12/14 11:23:19;;;;;;;3.20;2.80;;;;;;;;;;5044246;28;20203;-67
2023/12/14 11:25:49;;;;;;;3.10;2.80;;;;;;;;;;5047440;28;20345;-67
2023/12/14 11:28:16;;;;;;;2.50;2.30;;;;;;;;;;5043979;28;20196;-67
2023/12/14 11:30:46;;;;;;;3.03;2.73;;;;;;;;;;5040126;28;20238;-68
2023/12/14 11:33:14;;;;;;;2.73;2.53;;;;;;;;;;5044567;28;20227;-67
2023/12/14 11:35:41;;;;;;;2.60;2.40;;;;;;;;;;5042369;28;20203;-67
2023/12/14 11:38:12;;;;;;;2.80;2.50;;;;;;;;;;5041939;28;20290;-67
2023/12/14 11:40:41;;;;;;;2.40;2.20;;;;;;;;;;5038916;28;20234;-67
2023/12/14 11:43:15;;;;;;;2.33;2.13;;;;;;;;;;5044806;28;20222;-67
2023/12/14 11:45:42;;;;;;;2.40;2.20;;;;;;;;;;5044124;28;20200;-67
2023/12/14 11:48:12;;;;;;;2.03;1.93;;;;;;;;;;5046027;28;20265;-67
2023/12/14 11:50:39;;;;;;;2.60;2.40;;;;;;;;;;5043215;28;20216;-67
2023/12/14 11:53:07;;;;;;;2.23;2.10;;;;;;;;;;5033809;28;20215;-67
2023/12/14 11:55:35;;;;;;;2.40;1.90;;;;;;;;;;5040820;28;20227;-66
2023/12/14 11:58:03;;;;;;;2.47;2.20;;;;;;;;;;5043357;28;20207;-67
2023/12/14 12:00:31;;;;;;;1.97;1.87;;;;;;;;;;5043373;28;20203;-67
2023/12/14 12:03:09;;;;;;;1.97;1.80;;;;;;;;;;5033944;28;20203;-66
2023/12/14 12:05:41;;;;;;;2.20;1.73;;;;;;;;;;5028418;28;20211;-66
2023/12/14 12:08:08;;;;;;;2.30;1.77;;;;;;;;;;5030234;28;20215;-66
2023/12/14 12:10:36;;;;;;;1.80;1.70;;;;;;;;;;5034063;28;20519;-67
2023/12/14 12:13:04;;;;;;;1.90;1.80;;;;;;;;;;5031444;28;20208;-67
2023/12/14 12:15:32;;;;;;;2.37;2.17;;;;;;;;;;5032222;28;20916;-66
2023/12/14 12:18:00;;;;;;;2.30;2.10;;;;;;;;;;5033576;28;20207;-66
2023/12/14 12:20:27;;;;;;;2.37;2.17;;;;;;;;;;5032003;28;20234;-66
2023/12/14 12:22:56;;;;;;;2.47;2.27;;;;;;;;;;5033556;28;20211;-62
2023/12/14 12:25:23;;;;;;;2.10;2.00;;;;;;;;;;5037419;28;20199;-62
2023/12/14 12:27:51;;;;;;;2.47;2.20;;;;;;;;;;5038016;28;20204;-62
2023/12/14 12:30:18;;;;;;;2.20;1.83;;;;;;;;;;5032483;28;22617;-62
2023/12/14 12:32:46;;;;;;;1.93;1.83;;;;;;;;;;5032042;28;20204;-62
2023/12/14 12:35:13;;;;;;;3.07;2.30;;;;;;;;;;5032666;28;20211;-62
2023/12/14 12:37:41;;;;;;;2.67;2.03;;;;;;;;;;5033067;28;20207;-62
2023/12/14 12:40:11;;;;;;;2.27;2.07;;;;;;;;;;5035912;28;20199;-62
2023/12/14 12:42:38;;;;;;;2.43;1.97;;;;;;;;;;5033043;28;20208;-62
2023/12/14 12:45:06;;;;;;;2.27;1.90;;;;;;;;;;5027828;28;20204;-63
2023/12/14 12:47:33;;;;;;;1.90;1.80;;;;;;;;;;5029442;28;20203;-63
2023/12/14 12:50:00;;;;;;;1.70;1.60;;;;;;;;;;5026352;28;20195;-63
2023/12/14 12:52:27;;;;;;;2.17;1.97;;;;;;;;;;5032681;28;20231;-63
2023/12/14 12:54:54;;;;;;;1.70;1.60;;;;;;;;;;5028970;28;20678;-63
2023/12/14 12:57:23;;;;;;;1.70;1.60;;;;;;;;;;5029562;28;20207;-63
2023/12/14 12:59:50;;;;;;;1.50;1.40;;;;;;;;;;5034593;28;20208;-63
2023/12/14 13:02:17;;;;;;;1.77;1.60;;;;;;;;;;5028879;28;20204;-63
2023/12/14 13:04:44;;;;;;;1.60;1.47;;;;;;;;;;5031592;28;20223;-63
2023/12/14 13:07:12;;;;;;;1.40;1.30;;;;;;;;;;5037425;28;20208;-62
2023/12/14 13:09:38;;;;;;;2.80;1.60;;;;;;;;;;5037253;28;20211;-63
2023/12/14 13:12:05;;;;;;;1.33;1.23;;;;;;;;;;5041461;28;20241;-61
2023/12/14 13:14:34;;;;;;;1.47;1.37;;;;;;;;;;5039944;28;20242;-62
2023/12/14 13:17:01;;;;;;;2.93;2.43;;;;;;;;;;5038688;28;20200;-62
2023/12/14 13:19:28;;;;;;;2.90;2.30;;;;;;;;;;5042520;28;20229;-62
2023/12/14 13:21:59;;;;;;;1.70;1.60;;;;;;;;;;5044679;28;20198;-63
2023/12/14 13:24:26;;;;;;;1.47;1.37;;;;;;;;;;5043852;28;20203;-62
2023/12/14 13:26:53;;;;;;;1.40;1.30;;;;;;;;;;5040911;28;20215;-61
2023/12/14 13:29:20;;;;;;;1.40;1.30;;;;;;;;;;5041546;28;20203;-63
2023/12/14 13:31:49;;;;;;;1.30;1.20;;;;;;;;;;5045686;28;20227;-68
2023/12/14 13:34:16;;;;;;;1.30;1.20;;;;;;;;;;5041689;28;20208;-66
2023/12/14 13:36:43;;;;;;;1.27;1.17;;;;;;;;;;5045191;28;20203;-66
2023/12/14 13:39:11;;;;;;;1.33;1.00;;;;;;;;;;5048675;28;20202;-67
2023/12/14 13:41:38;;;;;;;1.17;1.00;;;;;;;;;;5042909;28;20218;-67
2023/12/14 13:44:05;;;;;;;1.93;1.27;;;;;;;;;;5040152;28;20279;-67
2023/12/14 13:46:32;;;;;;;1.50;1.40;;;;;;;;;;5042586;28;20196;-67
2023/12/14 13:49:01;;;;;;;1.50;1.40;;;;;;;;;;5044834;28;20223;-67
2023/12/14 13:51:28;;;;;;;3.23;1.20;;;;;;;;;;5042426;28;20277;-67
2023/12/14 13:53:56;;;;;;;1.50;1.40;;;;;;;;;;5044898;28;20206;-68
2023/12/14 13:56:23;;;;;;;1.50;1.40;;;;;;;;;;5043235;28;20203;-68
2023/12/14 13:58:50;;;;;;;1.90;1.80;;;;;;;;;;5053523;28;20219;-67
2023/12/14 14:01:17;;;;;;;2.20;2.07;;;;;;;;;;5048422;28;20195;-67
2023/12/14 14:03:46;;;;;;;2.57;2.37;;;;;;;;;;5048409;28;20218;-67
2023/12/14 14:06:15;;;;;;;2.30;2.10;;;;;;;;;;5046815;28;20294;-68
2023/12/14 14:08:42;;;;;;;2.30;2.10;;;;;;;;;;5043459;28;20197;-67
2023/12/14 14:11:09;;;;;;;2.40;2.20;;;;;;;;;;5043278;28;20215;-67
2023/12/14 14:13:36;;;;;;;2.50;2.30;;;;;;;;;;5042705;28;20204;-67
2023/12/14 14:16:04;;;;;;;3.53;2.50;;;;;;;;;;5048295;28;20234;-68
2023/12/14 14:18:31;;;;;;;2.70;2.50;;;;;;;;;;5043370;28;20208;-67
2023/12/14 14:21:00;;;;;;;2.73;2.43;;;;;;;;;;5042151;28;20200;-67
2023/12/14 14:23:31;;;;;;;2.77;2.57;;;;;;;;;;5043376;28;20196;-67
2023/12/14 14:25:58;;;;;;;2.80;2.60;;;;;;;;;;5038953;28;20295;-68
2023/12/14 14:28:25;;;;;;;2.93;2.60;;;;;;;;;;5044449;28;20204;-67
2023/12/14 14:30:52;;;;;;;2.60;2.40;;;;;;;;;;5043684;28;20210;-68
2023/12/14 14:33:19;;;;;;;3.00;2.73;;;;;;;;;;5040514;28;20204;-68
2023/12/14 14:35:46;;;;;;;3.27;2.97;;;;;;;;;;5040436;28;20204;-68
2023/12/14 14:38:14;;;;;;;3.10;2.80;;;;;;;;;;5037813;28;20208;-67
2023/12/14 14:40:43;;;;;;;3.10;2.80;;;;;;;;;;5039229;28;20214;-68